createdAt,value
2017-12-22T00:02:09.329Z,6.90
2017-12-22T00:04:35.592Z,6.90
2017-12-22T00:07:01.851Z,6.90
2017-12-22T00:09:28.861Z,6.80
2017-12-22T00:11:55.081Z,6.80
2017-12-22T00:14:21.361Z,6.90
2017-12-22T00:16:47.633Z,6.90
2017-12-22T00:19:13.901Z,6.90
2017-12-22T00:21:40.889Z,6.90
2017-12-22T00:24:07.127Z,6.90
2017-12-22T00:26:33.391Z,6.90
2017-12-22T00:28:59.688Z,6.90
2017-12-22T00:31:25.950Z,6.90
2017-12-22T00:33:52.204Z,6.90
2017-12-22T00:36:19.221Z,6.70
2017-12-22T00:38:45.500Z,6.70
2017-12-22T00:41:11.752Z,6.80
2017-12-22T00:43:38.034Z,6.70
2017-12-22T00:46:05.084Z,6.70
2017-12-22T00:48:32.106Z,6.70
2017-12-22T00:50:58.348Z,6.70
2017-12-22T00:53:24.678Z,6.70
2017-12-22T00:55:50.898Z,6.70
2017-12-22T00:58:17.140Z,6.70
2017-12-22T01:00:43.403Z,6.80
2017-12-22T01:03:09.686Z,6.80
2017-12-22T01:05:35.976Z,6.80
2017-12-22T01:08:02.273Z,6.80
2017-12-22T01:10:29.256Z,6.80
2017-12-22T01:12:55.541Z,6.80
2017-12-22T01:18:33.928Z,6.90
2017-12-22T01:21:00.218Z,6.90
2017-12-22T01:23:26.510Z,6.90
2017-12-22T01:25:52.811Z,6.70
2017-12-22T01:28:19.133Z,6.60
2017-12-22T01:30:45.381Z,6.60
2017-12-22T01:33:11.603Z,6.60
2017-12-22T01:35:37.842Z,6.60
2017-12-22T01:38:04.112Z,6.70
2017-12-22T01:40:30.354Z,6.80
2017-12-22T01:42:57.426Z,6.60
2017-12-22T01:45:23.660Z,6.60
2017-12-22T01:47:49.948Z,6.60
2017-12-22T01:50:16.192Z,6.60
2017-12-22T01:52:43.176Z,6.60
2017-12-22T01:55:09.388Z,6.60
2017-12-22T01:57:35.680Z,6.60
2017-12-22T02:00:01.921Z,6.60
2017-12-22T02:02:28.950Z,6.60
2017-12-22T02:04:55.224Z,6.60
2017-12-22T02:07:21.457Z,6.70
2017-12-22T02:09:47.784Z,6.70
2017-12-22T02:12:14.009Z,6.80
2017-12-22T02:14:40.331Z,6.70
2017-12-22T02:17:07.315Z,6.70
2017-12-22T02:19:33.579Z,6.70
2017-12-22T02:21:59.911Z,6.70
2017-12-22T02:24:26.967Z,6.70
2017-12-22T02:26:53.186Z,6.70
2017-12-22T02:29:19.475Z,6.70
2017-12-22T02:31:45.708Z,6.70
2017-12-22T02:34:12.050Z,6.70
2017-12-22T02:36:38.307Z,6.70
2017-12-22T02:39:04.574Z,6.80
2017-12-22T02:41:30.817Z,6.80
2017-12-22T02:43:57.100Z,6.80
2017-12-22T02:46:23.324Z,6.90
2017-12-22T02:48:49.606Z,6.90
2017-12-22T02:51:15.876Z,6.90
2017-12-22T02:53:42.154Z,6.90
2017-12-22T02:56:08.440Z,6.90
2017-12-22T02:58:34.662Z,6.90
2017-12-22T03:01:01.664Z,7.00
2017-12-22T03:03:27.877Z,7.00
2017-12-22T03:05:54.863Z,7.00
2017-12-22T03:08:21.114Z,7.00
2017-12-22T03:10:47.404Z,7.00
2017-12-22T03:13:13.670Z,7.00
2017-12-22T03:15:39.916Z,7.00
2017-12-22T03:18:06.197Z,7.10
2017-12-22T03:20:32.424Z,7.00
2017-12-22T03:22:58.683Z,7.00
2017-12-22T03:25:24.928Z,7.00
2017-12-22T03:27:51.195Z,6.90
2017-12-22T03:30:17.462Z,7.00
2017-12-22T03:32:43.739Z,7.10
2017-12-22T03:35:17.656Z,7.00
2017-12-22T03:37:44.635Z,7.10
2017-12-22T03:40:10.884Z,7.00
2017-12-22T03:42:37.118Z,7.10
2017-12-22T03:45:03.374Z,7.10
2017-12-22T03:47:30.356Z,7.10
2017-12-22T03:49:56.636Z,7.10
2017-12-22T03:52:22.880Z,7.10
2017-12-22T03:54:50.850Z,7.20
2017-12-22T03:57:17.846Z,7.10
2017-12-22T03:59:44.127Z,7.10
2017-12-22T04:02:11.079Z,7.10
2017-12-22T04:04:38.045Z,7.20
2017-12-22T04:07:04.387Z,7.20
2017-12-22T04:09:30.605Z,7.10
2017-12-22T04:11:57.014Z,7.10
2017-12-22T04:14:24.064Z,7.10
2017-12-22T04:16:51.116Z,7.10
2017-12-22T04:19:18.100Z,7.00
2017-12-22T04:21:44.344Z,7.00
2017-12-22T04:24:10.592Z,7.00
2017-12-22T04:26:36.876Z,7.00
2017-12-22T04:29:03.112Z,7.00
2017-12-22T04:31:29.340Z,7.00
2017-12-22T04:33:55.652Z,7.00
2017-12-22T04:36:21.898Z,7.00
2017-12-22T04:38:48.162Z,7.00
2017-12-22T04:41:14.448Z,7.00
2017-12-22T04:43:40.727Z,7.10
2017-12-22T04:46:06.978Z,7.10
2017-12-22T04:48:33.991Z,7.10
2017-12-22T04:51:00.195Z,7.10
2017-12-22T04:53:26.488Z,7.00
2017-12-22T04:55:53.459Z,7.10
2017-12-22T04:58:19.717Z,7.10
2017-12-22T05:00:45.955Z,7.10
2017-12-22T05:03:12.221Z,7.10
2017-12-22T05:05:39.188Z,7.10
2017-12-22T05:08:05.415Z,7.10
2017-12-22T05:10:32.502Z,7.10
2017-12-22T05:12:58.758Z,7.10
2017-12-22T05:15:25.012Z,7.00
2017-12-22T05:17:52.020Z,7.00
2017-12-22T05:20:18.309Z,7.00
2017-12-22T05:22:44.552Z,7.00
2017-12-22T05:25:10.776Z,7.10
2017-12-22T05:27:37.035Z,7.00
2017-12-22T05:30:03.326Z,7.00
2017-12-22T05:32:29.580Z,7.10
2017-12-22T05:34:55.885Z,7.10
2017-12-22T05:37:22.144Z,7.00
2017-12-22T05:39:48.587Z,7.00
2017-12-22T05:42:14.852Z,7.00
2017-12-22T05:44:41.860Z,7.00
2017-12-22T05:47:08.129Z,7.00
2017-12-22T05:49:34.376Z,6.90
2017-12-22T05:52:00.769Z,7.00
2017-12-22T05:54:27.044Z,7.00
2017-12-22T05:56:53.973Z,7.00
2017-12-22T05:59:20.309Z,7.00
2017-12-22T06:01:46.542Z,6.90
2017-12-22T06:04:12.800Z,6.90
2017-12-22T06:06:39.021Z,7.00
2017-12-22T06:09:05.290Z,7.00
2017-12-22T06:11:31.519Z,6.90
2017-12-22T06:13:57.819Z,7.00
2017-12-22T06:16:24.044Z,7.00
2017-12-22T06:18:50.305Z,7.00
2017-12-22T06:21:18.109Z,6.90
2017-12-22T06:23:44.361Z,7.00
2017-12-22T06:26:10.611Z,7.00
2017-12-22T06:28:36.858Z,7.00
2017-12-22T06:31:03.124Z,7.00
2017-12-22T06:33:30.113Z,7.00
2017-12-22T06:35:56.468Z,6.90
2017-12-22T06:38:22.712Z,7.00
2017-12-22T06:40:48.980Z,6.90
2017-12-22T06:43:15.308Z,6.90
2017-12-22T06:45:41.577Z,6.80
2017-12-22T06:48:07.821Z,6.90
2017-12-22T06:50:34.074Z,6.80
2017-12-22T06:53:01.156Z,6.80
2017-12-22T06:55:27.386Z,6.80
2017-12-22T06:57:53.648Z,6.80
2017-12-22T07:00:19.935Z,6.90
2017-12-22T07:02:46.201Z,6.90
2017-12-22T07:05:12.553Z,7.00
2017-12-22T07:07:38.801Z,7.00
2017-12-22T07:10:05.851Z,7.00
2017-12-22T07:12:32.915Z,7.00
2017-12-22T07:14:59.161Z,7.00
2017-12-22T07:17:25.431Z,7.00
2017-12-22T07:19:51.713Z,7.10
2017-12-22T07:22:17.994Z,7.10
2017-12-22T07:24:44.227Z,7.20
2017-12-22T07:27:10.487Z,7.20
2017-12-22T07:29:37.556Z,7.20
2017-12-22T07:32:03.806Z,7.10
2017-12-22T07:34:30.080Z,7.10
2017-12-22T07:36:57.162Z,7.20
2017-12-22T07:39:23.460Z,7.20
2017-12-22T07:41:50.514Z,7.30
2017-12-22T07:44:16.769Z,7.30
2017-12-22T07:46:43.048Z,7.40
2017-12-22T07:49:09.336Z,7.30
2017-12-22T07:51:35.604Z,7.40
2017-12-22T07:54:01.914Z,7.40
2017-12-22T07:56:28.128Z,7.40
2017-12-22T07:58:54.395Z,7.30
2017-12-22T08:01:20.677Z,7.30
2017-12-22T08:03:46.980Z,7.40
2017-12-22T08:06:13.977Z,7.40
2017-12-22T08:08:40.313Z,7.40
2017-12-22T08:11:06.583Z,7.40
2017-12-22T08:13:33.542Z,7.70
2017-12-22T08:15:59.819Z,7.70
2017-12-22T08:18:26.162Z,7.70
2017-12-22T08:20:52.422Z,7.60
2017-12-22T08:23:19.505Z,7.80
2017-12-22T08:25:45.789Z,7.80
2017-12-22T08:28:12.015Z,7.90
2017-12-22T08:30:38.316Z,7.80
2017-12-22T08:33:04.556Z,7.90
2017-12-22T08:35:30.869Z,7.80
2017-12-22T08:37:57.123Z,7.80
2017-12-22T08:40:23.423Z,7.80
2017-12-22T08:42:49.718Z,7.80
2017-12-22T08:45:15.979Z,7.70
2017-12-22T08:47:42.205Z,7.70
2017-12-22T08:50:08.480Z,7.80
2017-12-22T08:52:34.718Z,7.80
2017-12-22T08:55:01.756Z,7.70
2017-12-22T08:57:28.036Z,7.70
2017-12-22T08:59:54.336Z,7.80
2017-12-22T09:02:20.622Z,7.80
2017-12-22T09:04:46.880Z,7.90
2017-12-22T09:07:13.916Z,8.00
2017-12-22T09:09:40.192Z,8.00
2017-12-22T09:12:06.453Z,8.10
2017-12-22T09:14:32.722Z,8.00
2017-12-22T09:16:58.978Z,7.80
2017-12-22T09:19:25.267Z,7.70
2017-12-22T09:21:51.522Z,7.80
2017-12-22T09:24:17.780Z,7.70
2017-12-22T09:26:44.054Z,7.60
2017-12-22T09:29:10.288Z,7.60
2017-12-22T09:31:36.627Z,7.60
2017-12-22T09:34:02.879Z,7.80
2017-12-22T09:36:29.163Z,7.80
2017-12-22T09:38:55.504Z,7.90
2017-12-22T09:41:21.811Z,7.90
2017-12-22T09:43:49.019Z,8.00
2017-12-22T09:46:15.321Z,7.80
2017-12-22T09:48:41.581Z,7.90
2017-12-22T09:51:07.841Z,7.80
2017-12-22T09:53:34.130Z,7.70
2017-12-22T09:56:01.119Z,7.80
2017-12-22T09:58:27.444Z,7.80
2017-12-22T10:00:53.728Z,7.90
2017-12-22T10:03:19.984Z,7.90
2017-12-22T10:05:47.000Z,7.90
2017-12-22T10:08:13.364Z,7.80
2017-12-22T10:10:40.364Z,8.00
2017-12-22T10:13:06.646Z,8.00
2017-12-22T10:15:32.898Z,7.90
2017-12-22T10:18:00.013Z,7.80
2017-12-22T10:20:26.987Z,7.90
2017-12-22T10:22:53.299Z,7.90
2017-12-22T10:25:20.346Z,7.90
2017-12-22T10:27:46.599Z,7.90
2017-12-22T10:30:12.887Z,8.00
2017-12-22T10:32:39.871Z,8.20
2017-12-22T10:35:06.154Z,8.20
2017-12-22T10:37:32.410Z,8.20
2017-12-22T10:39:59.412Z,8.30
2017-12-22T10:42:26.436Z,8.30
2017-12-22T10:44:52.695Z,8.30
2017-12-22T10:47:19.004Z,8.20
2017-12-22T10:49:45.287Z,8.00
2017-12-22T10:52:12.428Z,8.10
2017-12-22T10:54:39.471Z,8.20
2017-12-22T10:57:05.742Z,8.20
2017-12-22T10:59:32.016Z,8.20
2017-12-22T11:01:58.306Z,8.10
2017-12-22T11:04:24.564Z,7.90
2017-12-22T11:06:50.808Z,8.00
2017-12-22T11:09:17.782Z,8.10
2017-12-22T11:11:44.785Z,7.90
2017-12-22T11:14:11.045Z,7.90
2017-12-22T11:16:37.277Z,7.90
2017-12-22T11:19:04.420Z,7.70
2017-12-22T11:21:30.658Z,7.70
2017-12-22T11:23:57.711Z,7.70
2017-12-22T11:26:24.740Z,7.80
2017-12-22T11:28:51.459Z,7.80
2017-12-22T11:31:17.740Z,7.80
2017-12-22T11:33:44.722Z,7.70
2017-12-22T11:36:11.025Z,7.70
2017-12-22T11:38:37.314Z,7.70
2017-12-22T11:41:05.056Z,7.70
2017-12-22T11:43:31.308Z,7.70
2017-12-22T11:45:57.598Z,7.70
2017-12-22T11:48:23.862Z,7.60
2017-12-22T11:50:50.242Z,7.60
2017-12-22T11:53:16.544Z,7.70
2017-12-22T11:55:43.637Z,7.70
2017-12-22T11:58:09.930Z,7.70
2017-12-22T12:00:37.001Z,7.60
2017-12-22T12:03:03.275Z,7.60
2017-12-22T12:05:29.553Z,7.60
2017-12-22T12:07:55.843Z,7.40
2017-12-22T12:10:22.157Z,7.20
2017-12-22T12:12:48.429Z,7.10
2017-12-22T12:15:15.455Z,7.00
2017-12-22T12:17:41.749Z,7.00
2017-12-22T12:20:08.031Z,7.10
2017-12-22T12:22:34.308Z,7.00
2017-12-22T12:25:00.557Z,7.00
2017-12-22T12:27:26.867Z,7.10
2017-12-22T12:29:53.168Z,7.10
2017-12-22T12:32:20.145Z,7.20
2017-12-22T12:34:46.478Z,7.10
2017-12-22T12:37:12.802Z,7.10
2017-12-22T12:39:46.665Z,7.20
2017-12-22T12:42:12.947Z,7.20
2017-12-22T12:44:39.272Z,7.10
2017-12-22T12:47:05.545Z,7.00
2017-12-22T12:49:31.800Z,7.00
2017-12-22T12:51:58.837Z,7.00
2017-12-22T12:54:25.115Z,7.00
2017-12-22T12:56:51.381Z,7.10
2017-12-22T12:59:17.699Z,7.00
2017-12-22T13:01:44.036Z,7.00
2017-12-22T13:04:10.440Z,6.90
2017-12-22T13:06:36.805Z,6.90
2017-12-22T13:09:03.112Z,6.90
2017-12-22T13:11:29.360Z,6.90
2017-12-22T13:13:55.606Z,6.90
2017-12-22T13:16:22.488Z,6.90
2017-12-22T13:18:48.900Z,7.00
2017-12-22T13:21:15.371Z,6.90
2017-12-22T13:23:41.632Z,6.80
2017-12-22T13:26:07.940Z,6.70
2017-12-22T13:28:34.254Z,6.60
2017-12-22T13:31:00.605Z,6.60
2017-12-22T13:33:26.848Z,6.60
2017-12-22T13:35:53.168Z,6.50
2017-12-22T13:38:20.494Z,6.40
2017-12-22T13:40:47.389Z,6.40
2017-12-22T13:43:14.689Z,6.40
2017-12-22T13:45:41.377Z,6.40
2017-12-22T13:48:08.545Z,6.40
2017-12-22T13:50:36.052Z,6.40
2017-12-22T13:53:02.591Z,6.40
2017-12-22T13:55:29.130Z,6.50
2017-12-22T13:57:55.429Z,6.50
2017-12-22T14:00:21.827Z,6.50
2017-12-22T14:02:48.104Z,6.60
2017-12-22T14:05:14.500Z,6.50
2017-12-22T14:07:40.788Z,6.50
2017-12-22T14:10:07.059Z,6.40
2017-12-22T14:12:33.554Z,6.40
2017-12-22T14:14:59.848Z,6.40
2017-12-22T14:17:26.916Z,6.20
2017-12-22T14:19:53.227Z,6.20
2017-12-22T14:22:20.415Z,6.20
2017-12-22T14:24:46.653Z,6.20
2017-12-22T14:27:12.971Z,6.20
2017-12-22T14:29:39.193Z,6.30
2017-12-22T14:32:05.516Z,6.20
2017-12-22T14:34:31.836Z,6.20
2017-12-22T14:36:58.225Z,6.20
2017-12-22T14:39:24.485Z,6.20
2017-12-22T14:41:51.497Z,6.10
2017-12-22T14:44:17.785Z,6.10
2017-12-22T14:46:44.073Z,6.10
2017-12-22T14:49:10.353Z,6.10
2017-12-22T14:51:36.603Z,6.10
2017-12-22T14:54:02.973Z,6.10
2017-12-22T14:56:29.303Z,6.00
2017-12-22T14:58:55.729Z,5.90
2017-12-22T15:01:21.972Z,5.90
2017-12-22T15:03:49.032Z,5.90
2017-12-22T15:06:16.080Z,5.80
2017-12-22T15:08:43.051Z,5.80
2017-12-22T15:11:09.354Z,5.80
2017-12-22T15:13:36.387Z,5.80
2017-12-22T15:16:02.700Z,5.80
2017-12-22T15:18:28.969Z,5.90
2017-12-22T15:20:56.042Z,5.80
2017-12-22T15:23:22.311Z,5.80
2017-12-22T15:25:48.575Z,5.80
2017-12-22T15:28:15.676Z,5.80
2017-12-22T15:30:42.003Z,5.80
2017-12-22T15:33:08.279Z,5.80
2017-12-22T15:35:34.549Z,5.90
2017-12-22T15:38:00.948Z,5.90
2017-12-22T15:40:27.165Z,6.00
2017-12-22T15:42:54.193Z,6.00
2017-12-22T15:45:20.435Z,5.90
2017-12-22T15:47:47.429Z,5.90
2017-12-22T15:50:13.789Z,5.90
2017-12-22T15:52:40.049Z,6.00
2017-12-22T15:55:07.108Z,5.80
2017-12-22T15:57:34.138Z,5.80
2017-12-22T16:00:01.195Z,5.90
2017-12-22T16:02:27.486Z,5.90
2017-12-22T16:04:53.732Z,6.00
2017-12-22T16:07:20.004Z,5.80
2017-12-22T16:09:46.392Z,5.80
2017-12-22T16:12:12.718Z,5.80
2017-12-22T16:14:39.046Z,5.90
2017-12-22T16:17:05.314Z,6.00
2017-12-22T16:19:32.359Z,5.90
2017-12-22T16:21:59.392Z,5.90
2017-12-22T16:24:25.706Z,5.90
2017-12-22T16:26:52.068Z,5.80
2017-12-22T16:29:19.036Z,5.80
2017-12-22T16:31:45.296Z,5.80
2017-12-22T16:34:11.587Z,5.80
2017-12-22T16:36:38.592Z,5.90
2017-12-22T16:39:04.871Z,5.90
2017-12-22T16:41:31.211Z,5.90
2017-12-22T16:43:57.457Z,6.00
2017-12-22T16:46:23.727Z,5.90
2017-12-22T16:48:50.735Z,5.90
2017-12-22T16:51:17.029Z,5.90
2017-12-22T16:53:44.048Z,5.90
2017-12-22T16:56:10.346Z,5.90
2017-12-22T16:58:36.708Z,5.90
2017-12-22T17:01:03.720Z,5.90
2017-12-22T17:03:30.018Z,5.90
2017-12-22T17:05:57.032Z,5.90
2017-12-22T17:08:23.379Z,5.80
2017-12-22T17:10:50.416Z,5.80
2017-12-22T17:13:16.700Z,5.80
2017-12-22T17:15:42.991Z,5.80
2017-12-22T17:18:10.021Z,5.80
2017-12-22T17:20:36.305Z,5.80
2017-12-22T17:23:02.573Z,5.90
2017-12-22T17:25:28.856Z,5.80
2017-12-22T17:27:55.177Z,5.80
2017-12-22T17:30:21.483Z,5.80
2017-12-22T17:32:47.819Z,5.70
2017-12-22T17:35:14.916Z,5.70
2017-12-22T17:37:41.211Z,5.80
2017-12-22T17:40:07.529Z,5.70
2017-12-22T17:42:34.562Z,5.70
2017-12-22T17:45:00.972Z,5.80
2017-12-22T17:47:27.293Z,5.70
2017-12-22T17:49:53.588Z,5.80
2017-12-22T17:52:22.593Z,5.80
2017-12-22T17:54:48.899Z,5.70
2017-12-22T17:57:16.189Z,5.70
2017-12-22T17:59:42.692Z,5.70
2017-12-22T18:02:09.683Z,5.80
2017-12-22T18:04:35.965Z,5.70
2017-12-22T18:07:03.041Z,5.80
2017-12-22T18:09:29.307Z,5.70
2017-12-22T18:11:55.602Z,5.70
2017-12-22T18:14:21.893Z,5.80
2017-12-22T18:16:49.061Z,5.80
2017-12-22T18:19:16.101Z,5.80
2017-12-22T18:21:43.210Z,5.90
2017-12-22T18:24:09.546Z,5.80
2017-12-22T18:26:35.816Z,5.80
2017-12-22T18:29:02.949Z,5.70
2017-12-22T18:31:29.210Z,5.70
2017-12-22T18:33:55.532Z,5.70
2017-12-22T18:36:22.554Z,5.70
2017-12-22T18:38:48.924Z,5.70
2017-12-22T18:41:15.217Z,5.80
2017-12-22T18:43:41.612Z,5.80
2017-12-22T18:46:07.877Z,5.80
2017-12-22T18:48:34.128Z,5.90
2017-12-22T18:51:01.159Z,5.80
2017-12-22T18:53:27.522Z,5.80
2017-12-22T18:55:53.900Z,5.80
2017-12-22T18:58:20.233Z,5.70
2017-12-22T19:00:46.577Z,5.70
2017-12-22T19:03:29.437Z,5.70
2017-12-22T19:05:55.813Z,5.70
2017-12-22T19:08:22.250Z,5.80
2017-12-22T19:10:48.624Z,5.70
2017-12-22T19:13:14.936Z,5.70
2017-12-22T19:15:41.357Z,5.70
2017-12-22T19:18:07.680Z,5.60
2017-12-22T19:20:34.012Z,5.60
2017-12-22T19:23:00.344Z,5.70
2017-12-22T19:25:26.800Z,5.70
2017-12-22T19:27:53.880Z,5.70
2017-12-22T19:30:20.305Z,5.70
2017-12-22T19:32:53.845Z,5.70
2017-12-22T19:35:20.940Z,5.70
2017-12-22T19:37:48.084Z,5.70
2017-12-22T19:40:15.228Z,5.70
2017-12-22T19:42:42.436Z,5.70
2017-12-22T19:45:08.740Z,5.60
2017-12-22T19:47:35.037Z,5.70
2017-12-22T19:50:01.350Z,5.70
2017-12-22T19:52:27.706Z,5.70
2017-12-22T19:54:54.134Z,5.70
2017-12-22T19:57:20.430Z,5.70
2017-12-22T19:59:46.956Z,5.70
2017-12-22T20:02:13.317Z,5.70
2017-12-22T20:04:39.648Z,5.70
2017-12-22T20:07:05.998Z,5.70
2017-12-22T20:09:32.382Z,5.70
2017-12-22T20:11:58.682Z,5.70
2017-12-22T20:14:36.172Z,5.60
2017-12-22T20:17:03.409Z,5.60
2017-12-22T20:19:29.794Z,5.60
2017-12-22T20:21:56.145Z,5.60
2017-12-22T20:24:22.455Z,5.60
2017-12-22T20:26:48.787Z,5.60
2017-12-22T20:29:15.065Z,5.60
2017-12-22T20:31:41.387Z,5.60
2017-12-22T20:34:08.693Z,5.60
2017-12-22T20:36:35.141Z,5.60
2017-12-22T20:39:02.469Z,5.50
2017-12-22T20:41:28.738Z,5.50
2017-12-22T20:43:55.063Z,5.50
2017-12-22T20:46:21.328Z,5.40
2017-12-22T20:48:49.420Z,5.50
2017-12-22T20:51:15.696Z,5.50
2017-12-22T20:53:42.022Z,5.40
2017-12-22T20:56:08.353Z,5.40
2017-12-22T20:58:34.664Z,5.40
2017-12-22T21:01:01.024Z,5.40
2017-12-22T21:03:27.343Z,5.40
2017-12-22T21:05:53.685Z,5.40
2017-12-22T21:08:20.006Z,5.40
2017-12-22T21:10:46.284Z,5.40
2017-12-22T21:13:12.608Z,5.40
2017-12-22T21:15:38.940Z,5.40
2017-12-22T21:18:05.336Z,5.50
2017-12-22T21:20:31.685Z,5.50
2017-12-22T21:22:57.973Z,5.60
2017-12-22T21:25:24.337Z,5.50
2017-12-22T21:27:50.705Z,5.40
2017-12-22T21:30:17.785Z,5.40
2017-12-22T21:32:44.240Z,5.40
2017-12-22T21:35:10.536Z,5.40
2017-12-22T21:37:37.652Z,5.40
2017-12-22T21:40:03.924Z,5.40
2017-12-22T21:42:30.251Z,5.40
2017-12-22T21:44:56.587Z,5.40
2017-12-22T21:47:23.686Z,5.40
2017-12-22T21:49:50.169Z,5.40
2017-12-22T21:52:16.494Z,5.50
2017-12-22T21:54:44.002Z,5.50
2017-12-22T21:57:10.276Z,5.50
2017-12-22T21:59:38.084Z,5.50
2017-12-22T22:02:04.434Z,5.50
2017-12-22T22:04:33.529Z,5.50
2017-12-22T22:06:59.939Z,5.40
2017-12-22T22:09:26.202Z,5.40
2017-12-22T22:11:52.566Z,5.40
2017-12-22T22:14:18.969Z,5.30
2017-12-22T22:16:46.012Z,5.40
2017-12-22T22:19:12.310Z,5.40
2017-12-22T22:21:38.572Z,5.40
2017-12-22T22:24:04.874Z,5.30
2017-12-22T22:26:31.168Z,5.30
2017-12-22T22:28:58.302Z,5.30
2017-12-22T22:31:24.630Z,5.30
2017-12-22T22:33:50.936Z,5.30
2017-12-22T22:36:17.222Z,5.30
2017-12-22T22:38:43.490Z,5.40
2017-12-22T22:41:09.852Z,5.40
2017-12-22T22:43:36.218Z,5.40
2017-12-22T22:46:02.488Z,5.40
2017-12-22T22:48:28.815Z,5.40
2017-12-22T22:50:55.084Z,5.50
2017-12-22T22:53:22.135Z,5.40
2017-12-22T22:55:49.194Z,5.40
2017-12-22T22:58:16.239Z,5.50
2017-12-22T23:00:43.209Z,5.40
2017-12-22T23:03:09.509Z,5.40
2017-12-22T23:05:36.537Z,5.40
2017-12-22T23:08:02.775Z,5.50
2017-12-22T23:10:29.079Z,5.40
2017-12-22T23:12:55.340Z,5.40
2017-12-22T23:15:22.368Z,5.40
2017-12-22T23:17:48.633Z,5.40
2017-12-22T23:20:15.664Z,5.50
2017-12-22T23:22:42.672Z,5.50
2017-12-22T23:25:08.956Z,5.50
2017-12-22T23:27:35.974Z,5.40
2017-12-22T23:30:02.301Z,5.40
2017-12-22T23:32:28.530Z,5.40
2017-12-22T23:34:54.798Z,5.40
2017-12-22T23:37:21.102Z,5.50
2017-12-22T23:39:47.427Z,5.50
2017-12-22T23:42:14.444Z,5.50
2017-12-22T23:44:40.730Z,5.50
2017-12-22T23:47:07.780Z,5.40
2017-12-22T23:49:34.783Z,5.40
2017-12-22T23:52:01.062Z,5.40
2017-12-22T23:54:27.491Z,5.40
2017-12-22T23:56:54.481Z,5.20
2017-12-22T23:59:20.697Z,5.20
